Hovedside
METAR-TAF:

METAR-TAF

Lufthavner :

Deauville, Frankrike

breddegrad: 49-21-55N, lengdegrad: 000-09-16E, høyde over havet: 146 m

Gjeldene værobservasjon

Denne rapporten ble laget for 29 minutter siden, klokken 15:00 UTC
Vind 6 kt fra Sør-sørvest
Temperatur 6°C
Luftfuktighet 87%
Trykk 1022 hPa
Sikt 10 km eller mer
Få skyer i en høyde av 2400 ft

METAR: LFRG 051500Z AUTO 20006KT 9999 FEW024 06/04 Q1022

Tid: 16:29 (15:29 UTC)

Varsel

Denne rapporten ble laget for 25 timer og 29 minutter siden, klokken 14:00 UTC
Varsel gyldig fra 04. klokken 15 UTC til 04. klokken 24 UTC
Vind 3 kt fra skiftende retning
Sikt 10 km eller mer
ingen skyer under 1500 m og ingen bygeskyer
Blir
fra 04. klokken 18 UTC til 04. klokken 20 UTC
Sikt: 3000 m
dis
Midlertidig
fra 04. klokken 22 UTC til 04. klokken 24 UTC
Sikt: 0400 m
tåke

TAF: LFRG 041400Z 0415/0424 VRB03KT CAVOK BECMG 0418/0420 3000 BR TEMPO 0422/0424 0400 FG VV///

Værobservasjoner og værvarsel for over 4000 flyplasser (METAR- og TAF-rapporter).

Tilgjengelige stasjoner er representert av de røde og gule prikkene på kartet.

Hold musepekeren over prikken for å se navnet på stasjonen.

Klikk så for å se værobservasjoner og -varsler.

For å forandre kartet kan du klikke på den grønne knappen med svart kryss for å zoome inn, på den grønne knappen med strek for å zoome ut, eller på de grønne pilene for å se tilstøtende kart.


METAR-TAF: